createdAt,value
2023-05-14T00:01:00.207Z,70.42
2023-05-14T00:03:26.768Z,70.75
2023-05-14T00:05:53.274Z,71.06
2023-05-14T00:08:19.747Z,70.57
2023-05-14T00:10:46.262Z,71.44
2023-05-14T00:13:12.714Z,71.70
2023-05-14T00:15:39.268Z,71.54
2023-05-14T00:18:06.973Z,71.23
2023-05-14T00:20:33.537Z,71.04
2023-05-14T00:23:00.010Z,70.92
2023-05-14T00:25:26.477Z,71.48
2023-05-14T00:27:52.929Z,71.83
2023-05-14T00:30:19.418Z,71.69
2023-05-14T00:32:45.989Z,71.31
2023-05-14T00:35:12.493Z,71.32
2023-05-14T00:37:39.115Z,71.41
2023-05-14T00:40:07.148Z,71.59
2023-05-14T00:42:33.676Z,71.51
2023-05-14T00:45:00.402Z,71.38
2023-05-14T00:47:27.042Z,71.33
2023-05-14T00:49:53.538Z,71.42
2023-05-14T00:52:20.248Z,71.56
2023-05-14T00:54:46.950Z,71.85
2023-05-14T00:57:13.651Z,71.86
2023-05-14T00:59:41.782Z,71.26
2023-05-14T01:02:08.337Z,71.22
2023-05-14T01:04:35.299Z,70.96
2023-05-14T01:07:24.379Z,70.73
2023-05-14T01:09:59.759Z,70.57
2023-05-14T01:12:34.666Z,70.67
2023-05-14T01:15:12.068Z,70.60
2023-05-14T01:17:43.667Z,70.56
2023-05-14T01:20:10.467Z,70.94
2023-05-14T01:22:37.406Z,71.10
2023-05-14T01:25:05.561Z,71.22
2023-05-14T01:27:37.885Z,71.35
2023-05-14T01:30:23.550Z,71.32
2023-05-14T01:32:52.008Z,71.53
2023-05-14T01:35:19.470Z,71.49
2023-05-14T01:37:45.951Z,71.59
2023-05-14T01:40:12.462Z,71.52
2023-05-14T01:42:38.912Z,71.60
2023-05-14T01:45:05.806Z,71.54
2023-05-14T01:47:32.347Z,71.60
2023-05-14T01:49:58.844Z,71.25
2023-05-14T01:52:25.287Z,71.52
2023-05-14T01:54:51.767Z,71.94
2023-05-14T01:57:18.225Z,71.67
2023-05-14T01:59:44.690Z,71.88
2023-05-14T02:02:11.175Z,71.31
2023-05-14T02:04:37.629Z,70.54
2023-05-14T02:07:04.174Z,71.11
2023-05-14T02:09:30.775Z,71.14
2023-05-14T02:11:57.264Z,70.94
2023-05-14T02:14:23.743Z,70.65
2023-05-14T02:16:51.351Z,70.73
2023-05-14T02:19:17.872Z,70.63
2023-05-14T02:21:44.716Z,70.39
2023-05-14T02:24:11.200Z,70.62
2023-05-14T02:26:37.642Z,70.60
2023-05-14T02:29:04.163Z,70.65
2023-05-14T02:31:30.985Z,70.81
2023-05-14T02:33:57.484Z,70.98
2023-05-14T02:36:23.962Z,71.52
2023-05-14T02:38:50.610Z,71.37
2023-05-14T02:41:17.067Z,70.77
2023-05-14T02:43:43.543Z,70.96
2023-05-14T02:46:10.039Z,70.81
2023-05-14T02:48:36.490Z,70.53
2023-05-14T02:51:03.003Z,71.37
2023-05-14T02:53:29.490Z,71.01
2023-05-14T02:55:56.226Z,70.85
2023-05-14T02:58:25.303Z,70.38
2023-05-14T03:00:53.331Z,70.28
2023-05-14T03:03:20.421Z,70.41
2023-05-14T03:05:47.326Z,70.19
2023-05-14T03:08:13.801Z,70.53
2023-05-14T03:10:40.338Z,71.07
2023-05-14T03:13:06.839Z,70.75
2023-05-14T03:15:33.299Z,70.28
2023-05-14T03:17:59.827Z,69.73
2023-05-14T03:20:26.623Z,69.43
2023-05-14T03:22:53.156Z,69.48
2023-05-14T03:25:19.679Z,69.84
2023-05-14T03:27:46.221Z,69.48
2023-05-14T03:30:12.924Z,69.44
2023-05-14T03:32:39.456Z,69.33
2023-05-14T03:35:06.476Z,69.57
2023-05-14T03:37:32.926Z,69.77
2023-05-14T03:39:59.377Z,69.54
2023-05-14T03:42:25.832Z,69.03
2023-05-14T03:44:52.322Z,69.40
2023-05-14T03:47:18.785Z,69.67
2023-05-14T03:49:45.254Z,69.85
2023-05-14T03:52:11.708Z,69.77
2023-05-14T03:54:38.609Z,70.04
2023-05-14T03:57:05.151Z,70.26
2023-05-14T03:59:31.725Z,70.97
2023-05-14T04:01:58.184Z,71.23
2023-05-14T04:04:24.691Z,71.79
2023-05-14T04:06:51.218Z,71.90
2023-05-14T04:09:17.661Z,71.69
2023-05-14T04:11:44.117Z,71.71
2023-05-14T04:14:10.608Z,71.46
2023-05-14T04:16:37.111Z,71.46
2023-05-14T04:19:05.014Z,71.31
2023-05-14T04:21:31.679Z,71.57
2023-05-14T04:23:58.163Z,72.07
2023-05-14T04:26:24.684Z,71.82
2023-05-14T04:28:51.206Z,71.96
2023-05-14T04:31:17.654Z,71.81
2023-05-14T04:33:44.131Z,72.07
2023-05-14T04:36:10.626Z,71.57
2023-05-14T04:38:37.089Z,71.73
2023-05-14T04:41:03.635Z,71.97
2023-05-14T04:43:30.258Z,71.99
2023-05-14T04:45:56.878Z,72.18
2023-05-14T04:48:23.432Z,71.71
2023-05-14T04:50:49.921Z,71.31
2023-05-14T04:53:16.372Z,71.58
2023-05-14T04:55:42.831Z,71.15
2023-05-14T04:58:09.289Z,71.34
2023-05-14T05:00:35.811Z,71.31
2023-05-14T05:03:02.323Z,71.10
2023-05-14T05:05:28.881Z,71.18
2023-05-14T05:07:55.407Z,71.23
2023-05-14T05:10:22.108Z,71.42
2023-05-14T05:12:48.713Z,71.24
2023-05-14T05:15:15.416Z,71.17
2023-05-14T05:17:42.055Z,71.18
2023-05-14T05:20:10.108Z,71.08
2023-05-14T05:22:36.703Z,71.34
2023-05-14T05:25:06.221Z,71.42
2023-05-14T05:27:33.402Z,71.24
2023-05-14T05:30:01.572Z,70.99
2023-05-14T05:32:28.075Z,70.72
2023-05-14T05:34:54.521Z,70.80
2023-05-14T05:37:21.043Z,70.32
2023-05-14T05:39:48.295Z,70.22
2023-05-14T05:42:14.822Z,70.08
2023-05-14T05:44:41.318Z,69.96
2023-05-14T05:47:07.771Z,69.79
2023-05-14T05:49:36.865Z,69.50
2023-05-14T05:52:04.131Z,68.51
2023-05-14T05:54:32.181Z,69.27
2023-05-14T05:56:59.221Z,68.61
2023-05-14T05:59:25.707Z,68.66
2023-05-14T06:01:52.195Z,67.67
2023-05-14T06:04:18.686Z,67.68
2023-05-14T06:06:45.428Z,67.65
2023-05-14T06:09:13.134Z,66.39
2023-05-14T06:11:39.578Z,66.12
2023-05-14T06:14:06.043Z,65.11
2023-05-14T06:16:32.560Z,65.12
2023-05-14T06:18:59.068Z,65.44
2023-05-14T06:21:25.575Z,65.01
2023-05-14T06:23:52.028Z,64.96
2023-05-14T06:26:18.529Z,65.21
2023-05-14T06:28:45.045Z,64.77
2023-05-14T06:31:11.527Z,64.28
2023-05-14T06:33:38.059Z,64.04
2023-05-14T06:36:05.554Z,64.54
2023-05-14T06:38:32.035Z,64.04
2023-05-14T06:40:58.518Z,64.06
2023-05-14T06:43:25.150Z,63.55
2023-05-14T06:45:51.834Z,63.48
2023-05-14T06:48:21.502Z,63.38
2023-05-14T06:50:48.433Z,62.62
2023-05-14T06:53:15.256Z,62.39
2023-05-14T06:55:41.813Z,61.88
2023-05-14T06:58:08.503Z,61.27
2023-05-14T07:00:35.010Z,60.59
2023-05-14T07:03:01.579Z,59.91
2023-05-14T07:05:28.120Z,59.74
2023-05-14T07:07:54.609Z,59.60
2023-05-14T07:10:21.241Z,59.85
2023-05-14T07:12:47.890Z,59.37
2023-05-14T07:15:14.386Z,59.69
2023-05-14T07:17:41.100Z,58.90
2023-05-14T07:20:08.128Z,57.81
2023-05-14T07:22:34.583Z,57.82
2023-05-14T07:25:01.310Z,57.26
2023-05-14T07:27:27.845Z,56.59
2023-05-14T07:29:54.311Z,55.89
2023-05-14T07:32:20.845Z,55.71
2023-05-14T07:34:47.373Z,56.36
2023-05-14T07:37:13.861Z,55.67
2023-05-14T07:39:41.650Z,55.59
2023-05-14T07:42:08.167Z,55.85
2023-05-14T07:44:34.622Z,55.71
2023-05-14T07:47:01.173Z,54.99
2023-05-14T07:49:27.751Z,55.66
2023-05-14T07:51:54.213Z,55.71
2023-05-14T07:54:20.802Z,55.36
2023-05-14T07:56:47.266Z,55.61
2023-05-14T07:59:13.732Z,55.88
2023-05-14T08:01:40.596Z,55.27
2023-05-14T08:04:07.161Z,56.53
2023-05-14T08:06:34.055Z,56.90
2023-05-14T08:09:00.684Z,57.28
2023-05-14T08:11:27.166Z,57.70
2023-05-14T08:13:53.643Z,58.32
2023-05-14T08:16:20.173Z,57.96
2023-05-14T08:18:47.084Z,57.94
2023-05-14T08:21:13.597Z,58.79
2023-05-14T08:23:40.053Z,59.13
2023-05-14T08:26:06.636Z,60.00
2023-05-14T08:28:33.107Z,60.04
2023-05-14T08:30:59.659Z,60.20
2023-05-14T08:33:26.166Z,60.55
2023-05-14T08:35:53.035Z,61.20
2023-05-14T08:38:19.530Z,61.77
2023-05-14T08:40:50.077Z,60.14
2023-05-14T08:43:17.752Z,59.35
2023-05-14T08:45:44.304Z,59.72
2023-05-14T08:48:11.030Z,58.87
2023-05-14T08:50:37.814Z,57.56
2023-05-14T08:53:04.299Z,57.54
2023-05-14T08:55:30.813Z,56.47
2023-05-14T08:57:57.326Z,55.76
2023-05-14T09:00:24.855Z,55.79
2023-05-14T09:02:51.813Z,55.82
2023-05-14T09:05:18.379Z,55.30
2023-05-14T09:07:45.052Z,54.91
2023-05-14T09:10:11.582Z,54.92
2023-05-14T09:12:38.053Z,54.84
2023-05-14T09:15:06.481Z,53.78
2023-05-14T09:17:33.020Z,53.81
2023-05-14T09:19:59.509Z,54.10
2023-05-14T09:22:26.111Z,53.30
2023-05-14T09:25:06.180Z,51.92
2023-05-14T09:27:34.352Z,50.74
2023-05-14T09:30:07.402Z,51.06
2023-05-14T09:32:41.014Z,50.30
2023-05-14T09:35:18.153Z,48.87
2023-05-14T09:37:46.239Z,49.76
2023-05-14T09:40:13.294Z,49.18
2023-05-14T09:42:40.179Z,49.12
2023-05-14T09:45:09.823Z,47.31
2023-05-14T09:47:37.142Z,47.27
2023-05-14T09:50:04.352Z,46.34
2023-05-14T09:52:31.031Z,46.26
2023-05-14T09:54:57.551Z,46.88
2023-05-14T09:57:24.228Z,45.34
2023-05-14T09:59:50.700Z,44.19
2023-05-14T10:02:37.871Z,43.38
2023-05-14T10:05:05.938Z,41.68
2023-05-14T10:07:39.144Z,41.34
2023-05-14T10:10:07.610Z,42.08
2023-05-14T10:12:34.635Z,38.96
2023-05-14T10:15:06.964Z,38.99
2023-05-14T10:17:34.730Z,39.86
2023-05-14T10:20:02.642Z,38.67
2023-05-14T10:22:31.910Z,38.19
2023-05-14T10:24:58.358Z,37.70
2023-05-14T10:27:24.895Z,36.83
2023-05-14T10:29:54.959Z,38.31
2023-05-14T10:32:25.725Z,37.88
2023-05-14T10:34:52.987Z,38.07
2023-05-14T10:37:26.338Z,39.02
2023-05-14T10:40:00.183Z,40.15
2023-05-14T10:42:28.226Z,40.70
2023-05-14T10:45:02.695Z,42.61
2023-05-14T10:47:29.303Z,42.05
2023-05-14T10:49:56.766Z,43.36
2023-05-14T10:52:23.335Z,44.50
2023-05-14T10:54:55.880Z,44.77
2023-05-14T10:57:23.691Z,46.00
2023-05-14T10:59:54.862Z,47.39
2023-05-14T11:02:26.145Z,47.86
2023-05-14T11:05:05.909Z,48.11
2023-05-14T11:07:38.095Z,47.70
2023-05-14T11:10:06.057Z,47.31
2023-05-14T11:12:33.510Z,47.05
2023-05-14T11:15:00.855Z,47.19
2023-05-14T11:17:28.089Z,45.23
2023-05-14T11:19:55.501Z,45.23
2023-05-14T11:22:22.475Z,44.33
2023-05-14T11:24:49.063Z,44.55
2023-05-14T11:27:15.998Z,45.64
2023-05-14T11:29:48.310Z,45.50
2023-05-14T11:32:15.483Z,43.44
2023-05-14T11:34:42.401Z,43.60
2023-05-14T11:37:09.193Z,43.80
2023-05-14T11:39:37.399Z,43.89
2023-05-14T11:42:14.720Z,44.68
2023-05-14T11:44:41.570Z,44.14
2023-05-14T11:47:08.098Z,45.02
2023-05-14T11:49:37.332Z,44.42
2023-05-14T11:52:07.583Z,43.85
2023-05-14T11:54:34.269Z,42.94
2023-05-14T11:57:10.765Z,41.71
2023-05-14T11:59:37.767Z,41.65
2023-05-14T12:02:07.122Z,41.75
2023-05-14T12:04:33.727Z,41.00
2023-05-14T12:07:00.479Z,40.65
2023-05-14T12:09:26.951Z,40.96
2023-05-14T12:11:53.453Z,41.10
2023-05-14T12:14:23.473Z,40.02
2023-05-14T12:16:50.489Z,40.03
2023-05-14T12:19:18.439Z,39.90
2023-05-14T12:21:46.202Z,40.24
2023-05-14T12:24:13.604Z,39.20
2023-05-14T12:26:41.539Z,39.46
2023-05-14T12:29:08.073Z,40.13
2023-05-14T12:31:34.659Z,40.15
2023-05-14T12:34:01.185Z,39.74
2023-05-14T12:36:27.647Z,39.95
2023-05-14T12:38:59.662Z,38.86
2023-05-14T12:41:26.154Z,35.69
2023-05-14T12:43:52.638Z,35.13
2023-05-14T12:46:19.175Z,33.78
2023-05-14T12:48:46.276Z,34.93
2023-05-14T12:51:12.979Z,35.06
2023-05-14T12:53:39.446Z,34.21
2023-05-14T12:56:06.228Z,33.62
2023-05-14T12:58:32.747Z,33.93
2023-05-14T13:00:59.593Z,33.83
2023-05-14T13:03:26.379Z,34.89
2023-05-14T13:05:53.271Z,34.74
2023-05-14T13:08:21.949Z,35.41
2023-05-14T13:10:48.480Z,34.59
2023-05-14T13:13:15.622Z,33.77
2023-05-14T13:15:42.126Z,34.89
2023-05-14T13:18:08.761Z,34.55
2023-05-14T13:20:35.382Z,33.70
2023-05-14T13:23:01.857Z,34.89
2023-05-14T13:25:28.348Z,33.29
2023-05-14T13:27:55.181Z,33.67
2023-05-14T13:30:21.685Z,33.63
2023-05-14T13:32:48.244Z,34.62
2023-05-14T13:35:14.850Z,34.12
2023-05-14T13:37:43.320Z,32.57
2023-05-14T13:40:10.297Z,33.09
2023-05-14T13:42:37.103Z,32.14
2023-05-14T13:45:04.074Z,32.10
2023-05-14T13:47:31.209Z,32.62
2023-05-14T13:49:57.750Z,31.65
2023-05-14T13:52:24.247Z,31.05
2023-05-14T13:54:50.900Z,30.88
2023-05-14T13:57:17.362Z,30.40
2023-05-14T13:59:43.825Z,30.16
2023-05-14T14:02:10.286Z,30.38
2023-05-14T14:04:36.764Z,26.81
2023-05-14T14:07:03.384Z,22.11
2023-05-14T14:09:34.870Z,18.66
2023-05-14T14:12:03.489Z,16.43
2023-05-14T14:14:30.053Z,15.21
2023-05-14T14:16:56.526Z,13.85
2023-05-14T14:19:23.730Z,11.83
2023-05-14T14:24:17.641Z,10.87
2023-05-14T14:26:44.149Z,13.76
2023-05-14T14:29:10.590Z,16.37
2023-05-14T14:31:37.204Z,19.21
2023-05-14T14:34:03.869Z,21.27
2023-05-14T14:36:31.611Z,22.99
2023-05-14T14:38:58.167Z,25.74
2023-05-14T14:41:24.646Z,27.97
2023-05-14T14:43:51.146Z,29.57
2023-05-14T14:46:17.638Z,32.05
2023-05-14T14:48:44.118Z,33.09
2023-05-14T14:51:10.618Z,34.85
2023-05-14T14:53:37.279Z,36.73
2023-05-14T14:56:04.403Z,37.81
2023-05-14T14:58:31.222Z,38.78
2023-05-14T15:00:58.038Z,38.34
2023-05-14T15:03:25.252Z,38.29
2023-05-14T15:05:53.304Z,38.67
2023-05-14T15:08:20.832Z,38.88
2023-05-14T15:10:47.354Z,40.06
2023-05-14T15:13:13.854Z,40.67
2023-05-14T15:15:40.312Z,40.01
2023-05-14T15:18:06.810Z,42.33
2023-05-14T15:20:33.342Z,42.40
2023-05-14T15:22:59.811Z,42.63
2023-05-14T15:25:26.770Z,43.48
2023-05-14T15:27:53.496Z,44.12
2023-05-14T15:30:20.014Z,44.04
2023-05-14T15:32:46.746Z,43.78
2023-05-14T15:35:13.327Z,42.94
2023-05-14T15:37:41.222Z,43.89
2023-05-14T15:40:08.468Z,43.53
2023-05-14T15:42:39.255Z,43.46
2023-05-14T15:45:06.019Z,42.57
2023-05-14T15:47:32.601Z,45.80
2023-05-14T15:49:59.909Z,47.82
2023-05-14T15:52:26.513Z,48.05
2023-05-14T15:54:54.195Z,48.48
2023-05-14T15:57:20.725Z,48.83
2023-05-14T15:59:47.331Z,49.09
2023-05-14T16:02:14.341Z,49.32
2023-05-14T16:04:40.815Z,49.31
2023-05-14T16:07:09.793Z,50.04
2023-05-14T16:09:36.588Z,50.47
2023-05-14T16:12:03.344Z,49.46
2023-05-14T16:14:29.801Z,48.68
2023-05-14T16:16:56.338Z,47.49
2023-05-14T16:19:22.966Z,45.10
2023-05-14T16:21:49.437Z,43.46
2023-05-14T16:24:17.929Z,43.48
2023-05-14T16:26:44.446Z,44.68
2023-05-14T16:29:10.961Z,44.68
2023-05-14T16:31:37.735Z,46.17
2023-05-14T16:34:04.231Z,47.18
2023-05-14T16:36:31.209Z,48.08
2023-05-14T16:39:07.447Z,48.52
2023-05-14T16:41:35.306Z,49.82
2023-05-14T16:44:01.850Z,49.88
2023-05-14T16:46:29.356Z,49.90
2023-05-14T16:48:56.199Z,50.46
2023-05-14T16:51:22.755Z,50.95
2023-05-14T16:53:49.261Z,52.25
2023-05-14T16:56:15.733Z,53.31
2023-05-14T16:58:42.188Z,53.58
2023-05-14T17:01:09.828Z,55.07
2023-05-14T17:03:36.813Z,55.40
2023-05-14T17:06:04.575Z,56.80
2023-05-14T17:08:33.471Z,56.38
2023-05-14T17:11:00.143Z,57.20
2023-05-14T17:13:26.641Z,57.83
2023-05-14T17:15:53.180Z,58.33
2023-05-14T17:18:19.748Z,58.26
2023-05-14T17:20:46.337Z,58.93
2023-05-14T17:23:12.983Z,60.15
2023-05-14T17:25:39.453Z,60.38
2023-05-14T17:28:06.097Z,60.35
2023-05-14T17:30:32.580Z,61.08
2023-05-14T17:32:59.160Z,59.98
2023-05-14T17:35:25.964Z,60.07
2023-05-14T17:37:52.564Z,60.72
2023-05-14T17:40:19.019Z,60.56
2023-05-14T17:42:46.303Z,61.34
2023-05-14T17:45:13.431Z,61.67
2023-05-14T17:47:40.250Z,60.97
2023-05-14T17:50:07.291Z,61.50
2023-05-14T17:52:33.777Z,60.26
2023-05-14T17:55:00.326Z,59.41
2023-05-14T17:57:27.011Z,60.27
2023-05-14T17:59:53.504Z,60.10
2023-05-14T18:02:19.988Z,59.52
2023-05-14T18:04:46.665Z,59.29
2023-05-14T18:07:13.361Z,59.45
2023-05-14T18:09:39.834Z,59.41
2023-05-14T18:12:06.871Z,60.17
2023-05-14T18:14:33.363Z,60.39
2023-05-14T18:16:59.897Z,61.12
2023-05-14T18:19:26.403Z,62.46
2023-05-14T18:21:55.332Z,64.02
2023-05-14T18:24:22.211Z,63.33
2023-05-14T18:26:48.679Z,63.48
2023-05-14T18:29:15.232Z,63.83
2023-05-14T18:31:41.692Z,63.71
2023-05-14T18:34:08.224Z,62.90
2023-05-14T18:36:34.701Z,63.27
2023-05-14T18:39:01.141Z,63.28
2023-05-14T18:41:27.626Z,63.91
2023-05-14T18:43:54.099Z,64.27
2023-05-14T18:46:20.652Z,64.55
2023-05-14T18:48:47.179Z,66.38
2023-05-14T18:51:13.807Z,66.30
2023-05-14T18:53:40.261Z,66.53
2023-05-14T18:56:06.768Z,67.38
2023-05-14T18:58:33.230Z,67.79
2023-05-14T19:00:59.718Z,67.44
2023-05-14T19:03:26.574Z,66.96
2023-05-14T19:05:53.634Z,66.74
2023-05-14T19:08:20.106Z,66.57
2023-05-14T19:10:46.664Z,65.40
2023-05-14T19:13:13.159Z,64.52
2023-05-14T19:15:39.702Z,64.81
2023-05-14T19:18:06.434Z,65.44
2023-05-14T19:20:32.922Z,65.21
2023-05-14T19:22:59.418Z,65.51
2023-05-14T19:25:26.145Z,66.05
2023-05-14T19:27:53.631Z,65.36
2023-05-14T19:30:20.640Z,65.17
2023-05-14T19:32:47.120Z,64.67
2023-05-14T19:35:13.651Z,64.97
2023-05-14T19:37:40.129Z,65.63
2023-05-14T19:40:07.222Z,65.67
2023-05-14T19:42:33.707Z,65.90
2023-05-14T19:45:00.234Z,65.27
2023-05-14T19:47:28.364Z,66.13
2023-05-14T19:49:54.954Z,66.96
2023-05-14T19:52:21.404Z,67.24
2023-05-14T19:54:47.845Z,67.20
2023-05-14T19:57:14.305Z,66.84
2023-05-14T19:59:41.352Z,65.99
2023-05-14T20:02:09.054Z,66.53
2023-05-14T20:04:35.597Z,67.20
2023-05-14T20:07:02.075Z,67.78
2023-05-14T20:09:28.566Z,67.86
2023-05-14T20:11:55.042Z,68.52
2023-05-14T20:14:21.489Z,69.34
2023-05-14T20:16:48.912Z,69.64
2023-05-14T20:19:16.301Z,69.53
2023-05-14T20:21:42.920Z,69.91
2023-05-14T20:24:09.433Z,69.91
2023-05-14T20:26:35.956Z,69.66
2023-05-14T20:29:02.431Z,69.51
2023-05-14T20:31:29.114Z,69.37
2023-05-14T20:33:55.644Z,69.06
2023-05-14T20:36:22.254Z,68.47
2023-05-14T20:38:48.773Z,67.83
2023-05-14T20:41:15.311Z,68.51
2023-05-14T20:43:41.827Z,68.34
2023-05-14T20:46:09.009Z,68.48
2023-05-14T20:48:35.568Z,67.90
2023-05-14T20:51:04.725Z,67.69
2023-05-14T20:53:31.542Z,67.00
2023-05-14T20:55:58.957Z,67.07
2023-05-14T20:58:25.568Z,67.10
2023-05-14T21:00:52.048Z,68.19
2023-05-14T21:03:18.611Z,69.60
2023-05-14T21:05:45.614Z,69.87
2023-05-14T21:08:12.059Z,70.00
2023-05-14T21:10:38.536Z,70.65
2023-05-14T21:13:05.091Z,71.36
2023-05-14T21:15:32.533Z,71.86
2023-05-14T21:17:59.033Z,72.52
2023-05-14T21:20:25.501Z,72.60
2023-05-14T21:22:51.988Z,73.13
2023-05-14T21:25:18.509Z,72.85
2023-05-14T21:27:44.963Z,73.23
2023-05-14T21:30:12.026Z,73.53
2023-05-14T21:32:38.598Z,73.42
2023-05-14T21:35:05.464Z,73.34
2023-05-14T21:37:31.948Z,73.14
2023-05-14T21:39:58.438Z,72.97
2023-05-14T21:42:24.930Z,73.44
2023-05-14T21:44:51.420Z,73.76
2023-05-14T21:47:17.939Z,73.79
2023-05-14T21:49:44.429Z,73.49
2023-05-14T21:52:11.236Z,73.62
2023-05-14T21:54:37.721Z,73.33
2023-05-14T21:57:04.355Z,73.20
2023-05-14T21:59:30.856Z,72.90
2023-05-14T22:02:07.029Z,72.76
2023-05-14T22:04:34.279Z,72.83
2023-05-14T22:07:00.814Z,72.35
2023-05-14T22:09:27.333Z,72.81
2023-05-14T22:11:53.792Z,72.51
2023-05-14T22:14:20.310Z,72.18
2023-05-14T22:16:47.143Z,72.15
2023-05-14T22:19:15.274Z,72.37
2023-05-14T22:21:41.775Z,72.15
2023-05-14T22:24:08.328Z,71.71
2023-05-14T22:26:34.858Z,71.42
2023-05-14T22:29:01.306Z,71.42
2023-05-14T22:31:27.804Z,71.42
2023-05-14T22:33:54.342Z,70.91
2023-05-14T22:36:20.934Z,70.35
2023-05-14T22:38:47.425Z,71.08
2023-05-14T22:41:13.932Z,71.50
2023-05-14T22:43:40.392Z,71.32
2023-05-14T22:46:06.911Z,71.45
2023-05-14T22:48:33.548Z,71.30
2023-05-14T22:51:00.001Z,71.09
2023-05-14T22:53:26.507Z,70.59
2023-05-14T22:55:52.962Z,70.54
2023-05-14T22:58:19.430Z,71.17
2023-05-14T23:00:45.932Z,70.92
2023-05-14T23:03:12.401Z,71.25
2023-05-14T23:05:38.846Z,72.10
2023-05-14T23:08:05.631Z,72.59
2023-05-14T23:10:32.154Z,72.90
2023-05-14T23:12:58.656Z,72.92
2023-05-14T23:15:25.400Z,73.56
2023-05-14T23:17:52.131Z,72.80
2023-05-14T23:20:18.805Z,72.99
2023-05-14T23:22:45.304Z,72.39
2023-05-14T23:25:11.807Z,72.92
2023-05-14T23:27:38.286Z,73.00
2023-05-14T23:30:05.176Z,73.71
2023-05-14T23:32:31.749Z,73.60
2023-05-14T23:34:58.240Z,73.36
2023-05-14T23:37:24.724Z,74.13
2023-05-14T23:39:51.334Z,72.83
2023-05-14T23:42:17.832Z,72.17
2023-05-14T23:44:44.364Z,72.16
2023-05-14T23:47:10.831Z,71.97
2023-05-14T23:49:37.848Z,72.00
2023-05-14T23:52:04.568Z,71.70
2023-05-14T23:54:31.307Z,72.01
2023-05-14T23:56:57.760Z,72.26
2023-05-14T23:59:24.222Z,72.14
